Time;durP1;ratioP1;P1;durP2;ratioP2;P2;SDS_P1;SDS_P2;PMS_P1;PMS_P2;Temp;Humidity;BMP_temperature;BMP_pressure;BME280_temperature;BME280_humidity;BME280_pressure;Samples;Min_cycle;Max_cycle;Signal;HPM_P1;HPM_P2
2023/06/06 00:00:19;;;;;;;3.13;2.80;;;;;;;17.09;59.49;101145.56;5015111;28;20219;-75
2023/06/06 00:02:48;;;;;;;2.50;2.30;;;;;;;17.04;59.90;101143.91;5014759;28;20202;-74
2023/06/06 00:05:16;;;;;;;2.30;2.10;;;;;;;17.02;59.99;101145.72;5014895;28;20238;-75
2023/06/06 00:07:44;;;;;;;3.70;3.40;;;;;;;16.90;60.10;101153.22;5014473;28;20688;-75
2023/06/06 00:10:12;;;;;;;3.70;2.87;;;;;;;16.87;59.89;101152.41;5015102;28;20317;-75
2023/06/06 00:12:41;;;;;;;5.83;3.07;;;;;;;16.91;59.54;101160.19;5014636;28;20722;-75
2023/06/06 00:15:09;;;;;;;4.17;3.33;;;;;;;16.82;60.56;101161.38;5014684;28;20217;-75
2023/06/06 00:17:36;;;;;;;3.03;2.83;;;;;;;16.80;60.68;101150.84;5014627;28;20213;-75
2023/06/06 00:20:09;;;;;;;3.20;2.90;;;;;;;16.83;60.42;101147.31;5014441;28;20321;-74
2023/06/06 00:22:36;;;;;;;3.13;2.93;;;;;;;16.79;60.52;101143.00;5021554;28;20210;-74
2023/06/06 00:25:04;;;;;;;5.27;2.87;;;;;;;16.83;60.71;101142.03;4996183;28;20258;-75
2023/06/06 00:27:31;;;;;;;3.20;2.90;;;;;;;16.75;61.36;101133.44;4994914;28;20204;-75
2023/06/06 00:29:57;;;;;;;3.20;3.00;;;;;;;16.75;61.63;101128.19;4994775;28;20224;-75
2023/06/06 00:32:24;;;;;;;3.87;3.23;;;;;;;16.71;62.26;101127.44;4994758;28;20677;-75
2023/06/06 00:34:50;;;;;;;2.80;2.60;;;;;;;16.65;62.55;101110.06;4995362;28;20210;-75
2023/06/06 00:37:18;;;;;;;3.47;3.17;;;;;;;16.40;64.03;101101.22;4994787;28;20371;-75
2023/06/06 00:39:44;;;;;;;3.63;3.33;;;;;;;16.38;63.91;101071.44;4994851;28;20270;-74
2023/06/06 00:42:10;;;;;;;3.60;3.30;;;;;;;16.33;64.22;101060.16;4994646;28;20351;-74
2023/06/06 00:44:37;;;;;;;3.10;2.80;;;;;;;16.33;64.16;101058.38;4994862;28;20207;-75
2023/06/06 00:47:04;;;;;;;3.90;3.50;;;;;;;16.37;64.31;101044.22;4994425;28;20548;-75
2023/06/06 00:49:31;;;;;;;4.00;3.60;;;;;;;16.38;64.26;101042.44;4994021;28;20892;-75
2023/06/06 00:51:59;;;;;;;3.73;3.00;;;;;;;16.39;64.59;101041.53;5007261;28;20199;-75
2023/06/06 00:54:27;;;;;;;4.37;3.33;;;;;;;16.38;65.14;101040.66;5014073;28;20254;-75
2023/06/06 00:56:55;;;;;;;4.97;3.07;;;;;;;16.38;65.04;101039.81;5013865;28;20572;-74
2023/06/06 00:59:23;;;;;;;3.60;3.30;;;;;;;16.32;64.89;101035.59;5013758;28;20227;-74
2023/06/06 01:01:50;;;;;;;3.57;3.07;;;;;;;16.33;65.09;101044.38;5013775;28;20486;-75
2023/06/06 01:04:17;;;;;;;3.40;3.10;;;;;;;16.28;65.21;101052.44;5013736;28;20206;-75
2023/06/06 01:06:43;;;;;;;3.93;3.47;;;;;;;16.27;65.22;101046.31;5013825;28;20203;-75
2023/06/06 01:09:12;;;;;;;3.57;3.27;;;;;;;16.30;65.36;101041.84;5013547;28;20227;-75
2023/06/06 01:11:50;;;;;;;3.90;3.60;;;;;;;16.26;65.45;101047.22;5013806;28;20281;-75
2023/06/06 01:14:23;;;;;;;3.93;3.60;;;;;;;16.12;65.86;101049.44;5013747;28;20232;-74
2023/06/06 01:16:52;;;;;;;4.63;3.27;;;;;;;16.09;66.41;101028.44;5013578;28;20215;-75
2023/06/06 01:19:20;;;;;;;5.77;3.40;;;;;;;16.05;66.71;101022.44;5013500;28;20227;-75
2023/06/06 01:21:51;;;;;;;3.23;3.03;;;;;;;16.00;66.82;101016.44;5013427;28;20210;-74
2023/06/06 01:24:19;;;;;;;3.33;3.03;;;;;;;16.01;66.69;101015.53;5013396;28;20211;-74
2023/06/06 01:26:46;;;;;;;3.90;3.60;;;;;;;15.95;67.06;101006.97;5013124;28;20590;-74
2023/06/06 01:29:12;;;;;;;4.53;3.40;;;;;;;15.96;66.79;100998.19;5012996;28;20284;-75
2023/06/06 01:31:42;;;;;;;3.70;3.40;;;;;;;15.96;66.84;101000.81;5013547;28;20620;-75
2023/06/06 01:34:16;;;;;;;3.40;3.10;;;;;;;15.93;67.11;101000.91;5013541;28;20290;-75
2023/06/06 01:36:51;;;;;;;4.47;3.63;;;;;;;15.92;67.68;101000.03;5013116;28;20222;-74
2023/06/06 01:39:22;;;;;;;3.53;3.33;;;;;;;15.92;67.43;100994.78;5013050;28;20300;-74
2023/06/06 01:41:51;;;;;;;3.63;3.33;;;;;;;15.85;67.89;100991.47;5013037;28;20277;-75
2023/06/06 01:44:20;;;;;;;4.03;3.53;;;;;;;15.84;67.83;100991.53;5013302;28;20203;-75
2023/06/06 01:46:46;;;;;;;3.60;3.30;;;;;;;15.85;67.82;100990.59;5012931;28;20555;-75
2023/06/06 01:49:15;;;;;;;5.57;3.70;;;;;;;15.81;68.11;100987.22;5012754;28;20268;-75
2023/06/06 01:51:41;;;;;;;3.93;3.60;;;;;;;15.82;67.73;100994.22;5012823;28;20203;-75
2023/06/06 01:54:10;;;;;;;3.90;3.60;;;;;;;15.81;67.42;101002.16;5012541;28;20261;-74
2023/06/06 01:56:36;;;;;;;4.00;3.70;;;;;;;15.75;68.40;101005.84;5012551;28;20312;-74
2023/06/06 01:59:02;;;;;;;3.93;3.57;;;;;;;15.75;68.20;100999.72;5012434;28;20638;-75
2023/06/06 02:01:29;;;;;;;3.90;3.50;;;;;;;15.72;68.68;100987.50;5012598;28;20257;-74
2023/06/06 02:03:56;;;;;;;5.87;4.47;;;;;;;15.68;68.70;100989.34;5012620;28;20217;-74
2023/06/06 02:06:22;;;;;;;6.27;3.60;;;;;;;15.60;69.83;100978.19;5012577;28;20210;-74
2023/06/06 02:08:49;;;;;;;3.80;3.50;;;;;;;15.53;70.39;100949.50;5012277;28;20777;-75
2023/06/06 02:11:16;;;;;;;3.70;3.40;;;;;;;15.43;71.17;100933.97;5012758;28;20211;-75
2023/06/06 02:13:43;;;;;;;3.80;3.50;;;;;;;15.41;71.32;100920.00;5012542;28;20211;-75
2023/06/06 02:16:09;;;;;;;3.83;3.53;;;;;;;15.52;70.81;100909.16;5012611;28;20230;-75
2023/06/06 02:18:36;;;;;;;3.73;3.47;;;;;;;15.55;70.46;100927.47;5012016;28;20643;-75
2023/06/06 02:21:02;;;;;;;3.97;3.33;;;;;;;15.55;70.42;100929.25;5012289;28;20214;-75
2023/06/06 02:23:29;;;;;;;6.23;4.03;;;;;;;15.52;70.97;100946.00;5012469;28;20207;-75
2023/06/06 02:25:55;;;;;;;3.43;3.20;;;;;;;15.49;71.23;100933.78;5012383;28;20207;-75
2023/06/06 02:28:23;;;;;;;5.90;3.40;;;;;;;15.50;70.98;100934.66;5012320;28;20230;-75
2023/06/06 02:30:50;;;;;;;3.57;3.37;;;;;;;15.37;72.49;100912.28;5012265;28;20265;-74
2023/06/06 02:33:17;;;;;;;4.53;4.13;;;;;;;15.25;72.76;100897.75;5012316;28;20213;-74
2023/06/06 02:35:43;;;;;;;6.47;3.47;;;;;;;15.27;72.89;100890.66;5012110;28;20207;-75
2023/06/06 02:38:10;;;;;;;4.23;3.83;;;;;;;15.34;72.52;100886.94;5012070;28;20285;-74
2023/06/06 02:40:36;;;;;;;3.77;3.33;;;;;;;15.38;71.91;100895.56;5012348;28;20284;-74
2023/06/06 02:43:02;;;;;;;4.10;3.77;;;;;;;15.38;71.62;100906.09;5012296;28;20210;-75
2023/06/06 02:45:30;;;;;;;3.83;3.53;;;;;;;15.36;71.78;100911.44;5012118;28;20679;-75
2023/06/06 02:47:57;;;;;;;4.07;3.73;;;;;;;15.34;72.05;100918.50;5011870;28;20203;-74
2023/06/06 02:50:24;;;;;;;4.00;3.70;;;;;;;15.32;71.82;100919.44;5012023;28;20222;-76
2023/06/06 02:52:51;;;;;;;3.80;3.50;;;;;;;15.32;72.18;100917.69;5011825;28;20700;-76
2023/06/06 02:55:17;;;;;;;4.50;3.50;;;;;;;15.33;72.14;100926.44;5011972;28;20672;-76
2023/06/06 02:57:44;;;;;;;3.67;3.33;;;;;;;15.34;72.31;100917.63;5011892;28;20239;-75
2023/06/06 03:00:12;;;;;;;4.10;3.80;;;;;;;15.27;72.02;100924.84;5012028;28;20231;-74
2023/06/06 03:02:40;;;;;;;5.10;3.40;;;;;;;15.23;72.48;100939.00;5012150;28;20236;-75
2023/06/06 03:05:07;;;;;;;4.47;4.07;;;;;;;15.17;73.25;100926.91;5011780;28;20214;-76
2023/06/06 03:07:34;;;;;;;4.93;3.67;;;;;;;15.16;73.15;100911.16;5011774;28;20214;-75
2023/06/06 03:10:00;;;;;;;3.73;3.43;;;;;;;15.16;73.11;100906.75;5012247;28;20226;-75
2023/06/06 03:12:27;;;;;;;4.17;3.77;;;;;;;15.15;73.42;100907.69;5012031;28;20740;-74
2023/06/06 03:14:53;;;;;;;4.87;4.47;;;;;;;14.78;75.21;100892.13;5012053;28;20226;-75
2023/06/06 03:17:19;;;;;;;4.93;4.47;;;;;;;14.63;76.70;100838.28;5011927;28;20276;-75
2023/06/06 03:19:48;;;;;;;4.30;3.90;;;;;;;14.73;76.22;100825.69;5011851;28;20226;-74
2023/06/06 03:22:16;;;;;;;4.00;3.70;;;;;;;14.80;75.61;100832.50;5015585;28;20216;-74
2023/06/06 03:24:45;;;;;;;4.60;4.20;;;;;;;14.83;75.45;100837.69;5024917;28;20260;-74
2023/06/06 03:27:13;;;;;;;4.30;3.97;;;;;;;14.73;76.23;100844.09;5031481;28;20671;-74
2023/06/06 03:29:39;;;;;;;5.13;4.63;;;;;;;14.52;77.21;100829.81;5031338;28;20222;-74
2023/06/06 03:32:07;;;;;;;4.57;3.77;;;;;;;14.36;78.53;100796.09;5031279;28;20608;-74
2023/06/06 03:34:33;;;;;;;4.97;4.53;;;;;;;14.42;78.72;100776.69;5031389;28;20210;-75
2023/06/06 03:37:01;;;;;;;4.80;4.27;;;;;;;14.48;78.39;100777.34;5031660;28;20237;-76
2023/06/06 03:39:28;;;;;;;4.80;4.40;;;;;;;14.51;77.34;100800.06;5034198;28;20269;-76
2023/06/06 03:41:54;;;;;;;4.80;4.40;;;;;;;14.60;77.66;100804.19;5035243;28;20206;-74
2023/06/06 03:44:21;;;;;;;4.77;4.47;;;;;;;14.48;78.61;100803.59;5035128;28;20209;-75
2023/06/06 03:46:47;;;;;;;4.90;4.60;;;;;;;14.35;79.02;100789.13;5034957;28;20667;-75
2023/06/06 03:49:14;;;;;;;5.47;4.60;;;;;;;14.38;79.05;100785.56;5034977;28;20734;-75
2023/06/06 03:51:41;;;;;;;4.90;4.40;;;;;;;14.44;78.74;100780.13;5032027;28;20206;-76
2023/06/06 03:54:08;;;;;;;4.47;4.17;;;;;;;14.49;78.74;100781.69;4995358;28;20203;-75
2023/06/06 03:56:36;;;;;;;5.07;4.67;;;;;;;14.39;79.43;100790.75;4995497;28;20293;-75
2023/06/06 03:59:05;;;;;;;4.90;4.40;;;;;;;14.33;80.09;100782.19;4995112;28;20231;-76
2023/06/06 04:01:32;;;;;;;7.70;4.70;;;;;;;14.39;79.61;100777.63;4995382;28;20597;-75
2023/06/06 04:03:59;;;;;;;5.57;5.07;;;;;;;14.48;78.78;100793.09;4995399;28;20223;-74
2023/06/06 04:06:26;;;;;;;5.47;4.50;;;;;;;14.50;78.82;100804.44;4995581;28;20247;-74
2023/06/06 04:08:52;;;;;;;5.77;5.27;;;;;;;14.47;78.96;100815.03;4995348;28;20227;-74
2023/06/06 04:11:21;;;;;;;6.50;4.87;;;;;;;14.29;80.08;100797.16;4995988;28;20211;-73
2023/06/06 04:13:47;;;;;;;6.03;5.30;;;;;;;14.20;80.68;100787.78;4995316;28;20234;-73
2023/06/06 04:16:14;;;;;;;5.70;5.27;;;;;;;13.94;82.55;100761.44;4995119;28;20665;-73
2023/06/06 04:18:40;;;;;;;5.10;4.70;;;;;;;14.06;82.42;100750.56;4994791;28;20661;-73
2023/06/06 04:21:07;;;;;;;4.57;4.23;;;;;;;14.17;80.97;100750.25;5001065;28;20207;-73
2023/06/06 04:23:33;;;;;;;5.17;4.77;;;;;;;14.24;81.52;100759.69;5021362;28;20204;-73
2023/06/06 04:26:01;;;;;;;5.70;5.20;;;;;;;13.98;83.22;100748.16;5034271;28;20210;-73
2023/06/06 04:28:31;;;;;;;6.10;5.57;;;;;;;13.59;85.48;100719.50;5033888;28;20229;-72
2023/06/06 04:30:58;;;;;;;6.93;6.27;;;;;;;13.48;87.32;100674.34;5034488;28;20553;-73
2023/06/06 04:33:25;;;;;;;6.00;5.43;;;;;;;13.43;87.96;100652.63;5034538;28;20202;-73
2023/06/06 04:35:51;;;;;;;6.23;5.80;;;;;;;13.39;87.65;100649.22;5034452;28;20210;-73
2023/06/06 04:38:20;;;;;;;5.93;5.20;;;;;;;13.43;88.10;100645.59;5033989;28;20284;-73
2023/06/06 04:40:50;;;;;;;6.00;5.60;;;;;;;13.30;88.67;100637.22;5033967;28;20234;-73
2023/06/06 04:43:17;;;;;;;6.20;5.47;;;;;;;13.20;89.65;100616.50;5034169;28;20215;-73
2023/06/06 04:45:47;;;;;;;6.23;5.83;;;;;;;13.23;89.97;100622.53;5034046;28;20578;-73
2023/06/06 04:48:13;;;;;;;5.77;5.37;;;;;;;13.27;90.15;100621.53;5033859;28;20309;-73
2023/06/06 04:50:41;;;;;;;6.03;5.40;;;;;;;13.35;89.75;100633.63;5046688;22;20718;-74
2023/06/06 04:53:08;;;;;;;6.03;5.60;;;;;;;13.60;88.50;100650.41;5033285;28;20481;-73
2023/06/06 04:55:35;;;;;;;6.33;5.83;;;;;;;13.82;87.20;100687.38;5033368;28;20218;-73
2023/06/06 04:58:02;;;;;;;5.43;5.03;;;;;;;13.98;86.00;100706.16;5033481;28;20255;-73
2023/06/06 05:00:29;;;;;;;6.20;5.70;;;;;;;13.92;86.47;100722.09;5033614;28;20206;-73
2023/06/06 05:02:56;;;;;;;6.00;5.40;;;;;;;13.83;87.54;100709.22;5033812;28;20260;-73
2023/06/06 05:05:23;;;;;;;6.57;6.03;;;;;;;13.92;86.38;100721.25;5033560;28;20213;-73
2023/06/06 05:07:49;;;;;;;6.30;5.70;;;;;;;14.09;86.58;100732.97;5033126;28;20247;-73
2023/06/06 05:10:16;;;;;;;6.43;5.83;;;;;;;14.26;85.48;100756.09;5033302;28;20228;-73
2023/06/06 05:12:42;;;;;;;6.53;6.03;;;;;;;14.28;84.96;100756.91;5033389;28;20206;-73
2023/06/06 05:15:10;;;;;;;6.93;5.90;;;;;;;14.05;86.18;100768.09;5032918;28;20210;-73
2023/06/06 05:17:36;;;;;;;6.77;6.07;;;;;;;13.92;88.58;100727.34;5032585;28;20702;-73
2023/06/06 05:20:10;;;;;;;6.40;5.90;;;;;;;14.04;88.46;100721.75;5032407;28;20233;-73
2023/06/06 05:22:36;;;;;;;6.63;5.93;;;;;;;14.25;87.90;100725.53;5013897;28;20199;-73
2023/06/06 05:25:04;;;;;;;6.50;6.00;;;;;;;14.21;87.79;100738.75;5013209;28;20726;-73
2023/06/06 05:27:30;;;;;;;8.43;6.63;;;;;;;14.22;88.33;100736.09;5013036;28;20203;-73
2023/06/06 05:29:56;;;;;;;7.80;7.20;;;;;;;14.31;85.97;100748.13;5013051;28;20715;-73
2023/06/06 05:32:23;;;;;;;7.67;6.97;;;;;;;14.32;87.17;100757.69;5013212;28;20203;-73
2023/06/06 05:34:49;;;;;;;6.83;6.37;;;;;;;14.41;85.94;100769.69;5013157;28;20260;-73
2023/06/06 05:37:18;;;;;;;7.00;6.50;;;;;;;14.66;84.71;100798.75;5012520;28;20222;-72
2023/06/06 05:39:44;;;;;;;6.60;5.93;;;;;;;14.80;84.13;100814.97;5012913;28;20236;-72
2023/06/06 05:42:11;;;;;;;8.17;6.07;;;;;;;15.00;82.76;100851.16;5012979;28;20214;-73
2023/06/06 05:44:37;;;;;;;6.53;6.03;;;;;;;15.07;81.70;100876.34;5013059;28;20676;-73
2023/06/06 05:47:04;;;;;;;6.17;5.77;;;;;;;15.15;81.65;100888.41;5012816;28;20272;-73
2023/06/06 05:49:31;;;;;;;6.10;5.53;;;;;;;15.26;80.76;100916.09;5012695;28;20320;-73
2023/06/06 05:51:57;;;;;;;6.50;6.00;;;;;;;15.24;79.30;100959.13;5010503;28;20212;-73
2023/06/06 05:54:25;;;;;;;7.07;6.27;;;;;;;15.28;80.02;100964.25;5012657;28;20726;-73
2023/06/06 05:56:51;;;;;;;6.30;5.90;;;;;;;15.08;81.37;100938.56;5013054;28;20263;-73
2023/06/06 05:59:18;;;;;;;5.90;5.40;;;;;;;15.26;80.47;100944.16;5012522;28;20238;-73
2023/06/06 06:01:47;;;;;;;6.87;5.63;;;;;;;15.43;78.46;100977.84;5012315;28;20742;-73
2023/06/06 06:04:13;;;;;;;6.07;5.57;;;;;;;15.36;78.21;101000.88;5012608;28;20241;-73
2023/06/06 06:06:40;;;;;;;5.33;4.90;;;;;;;15.48;77.83;101010.16;5012752;28;20203;-73
2023/06/06 06:09:06;;;;;;;6.33;5.40;;;;;;;15.63;76.93;101019.34;5012329;28;20711;-73
2023/06/06 06:11:34;;;;;;;6.07;4.90;;;;;;;15.68;76.14;101049.88;5012662;28;20229;-73
2023/06/06 06:14:01;;;;;;;7.00;4.87;;;;;;;15.48;74.22;101092.56;5012349;28;20699;-73
2023/06/06 06:16:27;;;;;;;5.10;4.70;;;;;;;15.68;74.47;101112.19;5012145;28;20206;-73
2023/06/06 06:18:53;;;;;;;5.03;4.37;;;;;;;15.84;74.07;101116.13;5012210;28;20281;-73
2023/06/06 06:21:21;;;;;;;7.37;4.70;;;;;;;15.89;72.63;101139.66;5012529;28;20217;-73
2023/06/06 06:23:49;;;;;;;6.57;4.30;;;;;;;15.93;72.97;101170.25;5012091;28;20222;-72
2023/06/06 06:26:15;;;;;;;7.53;4.13;;;;;;;16.03;73.16;101170.84;5012437;28;20694;-73
2023/06/06 06:28:43;;;;;;;4.10;3.80;;;;;;;16.03;73.01;101184.03;5012485;28;20590;-72
2023/06/06 06:31:10;;;;;;;7.50;4.10;;;;;;;16.20;72.33;101188.81;5012168;28;20214;-72
2023/06/06 06:33:36;;;;;;;5.07;4.57;;;;;;;16.28;71.85;101203.44;5011593;28;20266;-73
2023/06/06 06:36:03;;;;;;;4.10;3.70;;;;;;;16.40;72.00;101204.84;5004963;28;20648;-73
2023/06/06 06:38:30;;;;;;;8.63;4.23;;;;;;;16.47;69.73;101227.47;5002765;28;20652;-73
2023/06/06 06:40:56;;;;;;;4.20;3.40;;;;;;;16.51;69.81;101264.28;4997577;28;20203;-73
2023/06/06 06:43:23;;;;;;;6.33;3.80;;;;;;;16.56;69.36;101265.00;4992330;28;20266;-73
2023/06/06 06:45:50;;;;;;;3.80;3.50;;;;;;;16.60;69.25;101288.56;4992199;28;20239;-73
2023/06/06 06:48:17;;;;;;;4.40;3.87;;;;;;;16.35;68.07;101295.47;4992266;28;20234;-73
2023/06/06 06:50:44;;;;;;;4.33;3.63;;;;;;;16.45;68.57;101308.38;4992458;28;20215;-73
2023/06/06 06:53:12;;;;;;;4.40;3.90;;;;;;;16.55;68.27;101302.78;5005301;28;20199;-73
2023/06/06 06:55:39;;;;;;;4.07;3.37;;;;;;;16.59;68.46;101305.31;5011775;28;20210;-73
2023/06/06 06:58:06;;;;;;;4.27;3.87;;;;;;;16.64;68.36;101316.56;5010540;28;20249;-73
2023/06/06 07:00:33;;;;;;;3.87;3.60;;;;;;;16.75;68.87;101316.25;5011509;28;20758;-73
2023/06/06 07:03:04;;;;;;;3.87;3.57;;;;;;;16.84;68.84;101302.81;5011739;28;20211;-73
2023/06/06 07:05:30;;;;;;;6.10;3.80;;;;;;;16.94;68.41;101298.09;5011592;28;20214;-73
2023/06/06 07:07:56;;;;;;;4.07;3.67;;;;;;;16.99;68.73;101300.63;5011621;28;20265;-73
2023/06/06 07:10:25;;;;;;;5.13;3.90;;;;;;;16.98;69.10;101283.91;5011894;28;20206;-73
2023/06/06 07:12:53;;;;;;;6.57;4.33;;;;;;;16.94;68.71;101284.91;5012001;28;20301;-73
2023/06/06 07:15:20;;;;;;;4.20;3.90;;;;;;;16.96;68.53;101291.00;5015445;28;20217;-73
2023/06/06 07:17:49;;;;;;;4.80;4.30;;;;;;;16.99;68.04;101309.38;5015194;28;20262;-73
2023/06/06 07:20:18;;;;;;;4.53;4.13;;;;;;;17.05;67.94;101316.25;5015679;28;20254;-73
2023/06/06 07:22:44;;;;;;;3.70;3.40;;;;;;;17.06;68.11;101318.81;5015823;28;20210;-73
2023/06/06 07:25:11;;;;;;;5.53;5.03;;;;;;;17.07;67.88;101317.06;5015673;28;20214;-73
2023/06/06 07:27:38;;;;;;;4.33;3.77;;;;;;;17.16;68.02;101307.97;5015131;28;20207;-73
2023/06/06 07:30:12;;;;;;;4.73;4.43;;;;;;;17.18;66.84;101329.91;5015405;28;20223;-73
2023/06/06 07:32:38;;;;;;;5.00;4.60;;;;;;;16.88;68.51;101327.31;5015446;28;20217;-73
2023/06/06 07:35:06;;;;;;;4.80;4.27;;;;;;;16.94;69.35;101291.97;5015331;28;20322;-73
2023/06/06 07:37:35;;;;;;;4.40;4.00;;;;;;;17.10;69.24;101266.81;5014859;28;20527;-73
2023/06/06 07:40:01;;;;;;;6.03;4.43;;;;;;;17.22;68.97;101252.38;5015006;28;20716;-73
2023/06/06 07:42:28;;;;;;;4.57;4.00;;;;;;;17.30;67.11;101283.78;5015083;28;20289;-73
2023/06/06 07:44:55;;;;;;;6.60;4.40;;;;;;;17.34;67.31;101304.72;5015234;28;20211;-74
2023/06/06 07:47:22;;;;;;;4.27;3.53;;;;;;;17.34;67.29;101317.06;5015055;28;20675;-73
2023/06/06 07:49:50;;;;;;;4.83;4.30;;;;;;;17.42;67.20;101318.56;5014847;28;20285;-73
2023/06/06 07:52:16;;;;;;;6.87;3.60;;;;;;;17.51;66.91;101317.38;5014953;28;20207;-73
2023/06/06 07:54:44;;;;;;;4.70;4.17;;;;;;;17.62;66.88;101323.16;5014731;28;20206;-73
2023/06/06 07:57:11;;;;;;;4.47;4.17;;;;;;;17.60;66.08;101338.19;5018532;28;20230;-73
2023/06/06 07:59:38;;;;;;;4.20;3.90;;;;;;;17.36;66.40;101345.16;5034235;28;20726;-73
2023/06/06 08:02:05;;;;;;;4.13;3.83;;;;;;;17.53;65.31;101349.00;5034411;28;20656;-73
2023/06/06 08:04:32;;;;;;;3.90;3.50;;;;;;;17.62;65.70;101365.41;5034409;28;20209;-73
2023/06/06 08:06:58;;;;;;;6.23;4.10;;;;;;;17.77;64.92;101371.94;5034439;28;20283;-73
2023/06/06 08:09:25;;;;;;;4.47;4.07;;;;;;;17.96;64.03;101384.56;5033533;28;20218;-73
2023/06/06 08:11:52;;;;;;;5.10;4.40;;;;;;;18.03;64.76;101412.47;5033758;28;20303;-72
2023/06/06 08:14:19;;;;;;;4.93;3.77;;;;;;;18.14;64.93;101394.47;5034225;28;20276;-72
2023/06/06 08:16:45;;;;;;;4.03;3.83;;;;;;;18.23;63.92;101401.19;5034196;28;20252;-72
2023/06/06 08:19:12;;;;;;;3.83;3.43;;;;;;;18.36;63.26;101422.78;5034110;28;20287;-72
2023/06/06 08:21:38;;;;;;;4.10;3.80;;;;;;;18.48;63.70;101437.34;5034220;28;20202;-72
2023/06/06 08:24:04;;;;;;;4.97;3.93;;;;;;;18.57;62.51;101443.19;5034046;28;20690;-72
2023/06/06 08:26:31;;;;;;;4.47;4.07;;;;;;;18.65;62.39;101450.81;5033792;28;20687;-72
2023/06/06 08:28:59;;;;;;;4.13;3.83;;;;;;;18.69;61.54;101470.06;5017596;28;20731;-73
2023/06/06 08:31:29;;;;;;;4.00;3.70;;;;;;;18.56;61.04;101501.41;5033788;28;20213;-73
2023/06/06 08:33:56;;;;;;;3.93;3.63;;;;;;;18.64;61.24;101500.19;5033940;28;20694;-72
2023/06/06 08:36:22;;;;;;;4.33;4.03;;;;;;;18.79;61.31;101511.13;5033507;28;20757;-73
2023/06/06 08:38:49;;;;;;;3.83;3.53;;;;;;;18.86;61.67;101510.03;5033851;28;20226;-72
2023/06/06 08:41:15;;;;;;;4.20;3.90;;;;;;;18.90;61.11;101508.16;5033937;28;20202;-73
2023/06/06 08:43:43;;;;;;;4.13;3.70;;;;;;;18.90;60.88;101510.81;5033890;28;20267;-73
2023/06/06 08:46:12;;;;;;;4.90;3.43;;;;;;;18.90;61.39;101501.06;5033750;28;20260;-73
2023/06/06 08:48:41;;;;;;;3.90;3.60;;;;;;;18.94;61.82;101497.41;5033509;28;20233;-73
2023/06/06 08:51:09;;;;;;;3.80;3.43;;;;;;;18.93;61.82;101493.03;5033414;28;20308;-72
2023/06/06 08:53:36;;;;;;;4.00;3.70;;;;;;;19.00;61.13;101481.28;5033786;28;20205;-73
2023/06/06 08:56:02;;;;;;;3.57;3.27;;;;;;;19.09;63.07;101469.50;5033632;28;20206;-73
2023/06/06 08:58:30;;;;;;;3.70;3.40;;;;;;;19.22;62.07;101446.91;5018979;28;20234;-73
2023/06/06 09:00:58;;;;;;;4.43;4.03;;;;;;;19.27;61.12;101465.28;5013501;28;20253;-73
2023/06/06 09:03:31;;;;;;;5.07;4.33;;;;;;;19.35;61.60;101471.16;5013491;28;20211;-73
2023/06/06 09:05:59;;;;;;;5.60;3.80;;;;;;;19.43;60.71;101470.84;5013386;28;20273;-73
2023/06/06 09:08:26;;;;;;;4.73;4.33;;;;;;;19.47;61.02;101463.66;5013165;28;20475;-73
2023/06/06 09:10:52;;;;;;;3.93;3.60;;;;;;;19.50;60.33;101485.56;5013225;28;20211;-72
2023/06/06 09:13:18;;;;;;;4.57;4.03;;;;;;;19.49;60.31;101496.22;5013428;28;20210;-72
2023/06/06 09:15:45;;;;;;;6.23;3.87;;;;;;;19.58;60.69;101495.84;5013297;28;20219;-72
2023/06/06 09:18:12;;;;;;;4.50;4.10;;;;;;;19.30;59.72;101517.25;5012770;28;20304;-73
2023/06/06 09:20:40;;;;;;;4.07;3.73;;;;;;;19.47;60.51;101506.88;5013388;28;20269;-72
2023/06/06 09:23:13;;;;;;;4.10;3.77;;;;;;;19.55;60.45;101496.00;5013255;28;20217;-72
2023/06/06 09:25:44;;;;;;;4.50;4.17;;;;;;;19.59;60.25;101501.09;5013267;28;20702;-73
2023/06/06 09:28:10;;;;;;;4.80;4.17;;;;;;;19.27;60.23;101522.69;5012805;28;20293;-73
2023/06/06 09:30:36;;;;;;;4.50;4.10;;;;;;;19.12;60.95;101495.84;5012657;28;20656;-72
2023/06/06 09:33:04;;;;;;;4.37;3.97;;;;;;;19.16;62.30;101470.97;5013174;28;20214;-72
2023/06/06 09:35:31;;;;;;;4.47;4.00;;;;;;;19.41;63.89;101438.28;5012661;28;20250;-72
2023/06/06 09:38:06;;;;;;;4.30;3.87;;;;;;;19.48;62.93;101418.53;5012747;28;20241;-72
2023/06/06 09:40:33;;;;;;;5.03;3.93;;;;;;;19.69;62.13;101403.56;5013022;28;20205;-72
2023/06/06 09:42:59;;;;;;;5.00;4.30;;;;;;;19.84;60.89;101426.81;5012722;28;20211;-72
2023/06/06 09:45:26;;;;;;;5.07;4.67;;;;;;;19.94;61.52;101474.13;5013166;28;20214;-72
2023/06/06 09:47:52;;;;;;;4.63;4.33;;;;;;;19.47;60.59;101492.78;5012792;28;20211;-72
2023/06/06 09:50:20;;;;;;;4.33;3.93;;;;;;;19.49;61.01;101485.63;5012756;28;20277;-72
2023/06/06 09:52:51;;;;;;;4.33;4.00;;;;;;;19.67;62.17;101447.81;5012818;28;20688;-72
2023/06/06 09:55:19;;;;;;;4.83;3.90;;;;;;;19.84;61.08;101439.19;5012876;28;20206;-73
2023/06/06 09:57:48;;;;;;;5.60;4.10;;;;;;;19.95;60.02;101455.50;5012269;28;20211;-73
2023/06/06 10:00:16;;;;;;;4.07;3.77;;;;;;;20.07;59.54;101500.97;5012680;28;20241;-73
2023/06/06 10:02:45;;;;;;;4.07;3.60;;;;;;;20.13;60.30;101504.22;5012789;28;20266;-73
2023/06/06 10:05:13;;;;;;;6.27;3.97;;;;;;;19.99;60.43;101488.06;5012922;28;20203;-73
2023/06/06 10:07:41;;;;;;;4.50;4.10;;;;;;;20.07;60.21;101488.59;5012651;28;20241;-73
2023/06/06 10:10:11;;;;;;;4.03;3.73;;;;;;;20.14;60.21;101491.88;5012301;28;20887;-73
2023/06/06 10:12:39;;;;;;;4.20;3.90;;;;;;;20.30;60.61;101487.63;5012576;28;20691;-73
2023/06/06 10:15:08;;;;;;;5.33;4.83;;;;;;;20.08;59.13;101519.47;5012536;28;20273;-73
2023/06/06 10:17:36;;;;;;;9.97;4.60;;;;;;;20.21;59.41;101518.03;5012398;28;20214;-73
2023/06/06 10:20:06;;;;;;;5.53;4.00;;;;;;;20.28;59.65;101528.38;5017253;28;20592;-72
2023/06/06 10:22:33;;;;;;;7.53;4.00;;;;;;;20.22;61.72;101513.59;5021950;28;20201;-73
2023/06/06 10:25:00;;;;;;;4.63;3.90;;;;;;;20.49;62.06;101439.06;5022697;28;20207;-72
2023/06/06 10:27:33;;;;;;;4.27;3.80;;;;;;;20.60;59.87;101456.28;5018181;28;20275;-72
2023/06/06 10:30:08;;;;;;;5.70;3.17;;;;;;;20.71;60.30;101479.66;5017613;28;20226;-72
2023/06/06 10:32:46;;;;;;;4.50;4.07;;;;;;;20.77;59.32;101483.81;5012250;28;20206;-72
2023/06/06 10:35:16;;;;;;;4.47;4.17;;;;;;;20.79;59.21;101498.78;5011914;28;20210;-72
2023/06/06 10:37:42;;;;;;;4.20;3.90;;;;;;;20.82;58.55;101503.94;5012124;28;20258;-72
2023/06/06 10:40:10;;;;;;;3.70;3.33;;;;;;;20.89;58.37;101531.06;5011887;28;20230;-72
2023/06/06 10:42:38;;;;;;;4.03;3.73;;;;;;;20.95;59.61;101506.03;5012134;28;20289;-72
2023/06/06 10:45:07;;;;;;;4.13;3.83;;;;;;;21.05;58.41;101502.03;5011851;28;20676;-72
2023/06/06 10:47:38;;;;;;;4.10;3.80;;;;;;;21.10;58.22;101525.72;5010971;28;20302;-72
2023/06/06 10:50:18;;;;;;;3.93;3.70;;;;;;;21.09;57.75;101532.81;5032401;23;20229;-75
2023/06/06 10:52:45;;;;;;;4.30;3.90;;;;;;;21.14;57.67;101549.38;5051483;28;20267;-75
2023/06/06 10:55:15;;;;;;;5.63;4.57;;;;;;;20.96;57.40;101555.53;5051261;28;20263;-75
2023/06/06 10:57:49;;;;;;;4.37;3.97;;;;;;;20.83;57.92;101552.56;5051543;28;20263;-75
2023/06/06 11:00:18;;;;;;;5.30;4.27;;;;;;;21.03;57.61;101547.22;5024058;28;20221;-75
2023/06/06 11:02:46;;;;;;;4.33;3.87;;;;;;;21.27;57.10;101546.16;5031611;28;20206;-75
2023/06/06 11:05:12;;;;;;;4.03;3.73;;;;;;;21.38;56.34;101557.16;5031400;28;20225;-75
2023/06/06 11:07:39;;;;;;;3.90;3.60;;;;;;;21.49;55.67;101588.59;5031643;28;20413;-75
2023/06/06 11:10:06;;;;;;;4.30;4.00;;;;;;;21.78;56.45;101576.56;5031296;28;20218;-75
2023/06/06 11:12:33;;;;;;;4.00;3.70;;;;;;;21.92;55.99;101570.59;5031879;28;20210;-75
2023/06/06 11:15:04;;;;;;;7.33;4.20;;;;;;;21.98;56.20;101584.47;5031348;28;20264;-75
2023/06/06 11:17:43;;;;;;;5.67;3.50;;;;;;;21.99;56.30;101564.06;5031447;28;20210;-75
2023/06/06 11:20:17;;;;;;;4.77;4.20;;;;;;;21.97;55.74;101574.75;5031817;28;20317;-77
2023/06/06 11:22:50;;;;;;;4.57;4.20;;;;;;;21.96;56.85;101575.72;5030050;28;20197;-77
2023/06/06 11:25:23;;;;;;;5.53;4.40;;;;;;;21.50;54.59;101585.00;5031429;28;20213;-77